createdAt,value
2023-01-26T00:01:29.352Z,2.29
2023-01-26T00:03:57.419Z,2.19
2023-01-26T00:06:25.382Z,2.24
2023-01-26T00:08:56.776Z,2.29
2023-01-26T00:11:27.059Z,2.28
2023-01-26T00:13:56.558Z,2.22
2023-01-26T00:16:24.530Z,2.12
2023-01-26T00:18:51.590Z,2.27
2023-01-26T00:21:21.761Z,2.22
2023-01-26T00:23:49.928Z,2.38
2023-01-26T00:26:24.250Z,2.26
2023-01-26T00:28:53.032Z,2.24
2023-01-26T00:31:26.399Z,2.34
2023-01-26T00:33:56.039Z,2.41
2023-01-26T00:36:23.343Z,2.23
2023-01-26T00:38:50.432Z,2.40
2023-01-26T00:41:36.185Z,2.38
2023-01-26T00:44:03.223Z,2.41
2023-01-26T00:46:30.419Z,2.33
2023-01-26T00:48:57.441Z,2.27
2023-01-26T00:51:24.673Z,2.42
2023-01-26T00:53:51.676Z,2.31
2023-01-26T00:56:18.789Z,2.30
2023-01-26T00:58:45.846Z,2.32
2023-01-26T01:01:13.070Z,2.37
2023-01-26T01:03:40.128Z,2.35
2023-01-26T01:06:07.149Z,2.42
2023-01-26T01:08:34.191Z,2.49
2023-01-26T01:11:12.253Z,2.44
2023-01-26T01:13:40.069Z,2.34
2023-01-26T01:16:13.931Z,2.40
2023-01-26T01:18:41.375Z,2.36
2023-01-26T01:21:10.760Z,2.46
2023-01-26T01:23:38.339Z,2.45
2023-01-26T01:26:07.026Z,2.54
2023-01-26T01:28:36.014Z,2.51
2023-01-26T01:31:11.445Z,2.45
2023-01-26T01:33:39.255Z,2.52
2023-01-26T01:36:14.270Z,2.48
2023-01-26T01:38:42.886Z,2.50
2023-01-26T01:41:10.990Z,2.46
2023-01-26T01:43:38.598Z,2.39
2023-01-26T01:46:28.492Z,2.41
2023-01-26T01:49:32.224Z,2.51
2023-01-26T01:52:01.627Z,2.46
2023-01-26T01:54:36.948Z,2.42
2023-01-26T01:57:15.534Z,2.43
2023-01-26T01:59:55.433Z,2.40
2023-01-26T02:02:22.515Z,2.49
2023-01-26T02:04:49.757Z,2.53
2023-01-26T02:07:17.014Z,2.52
2023-01-26T02:10:03.720Z,2.46
2023-01-26T02:12:33.135Z,2.51
2023-01-26T02:15:01.431Z,2.48
2023-01-26T02:17:28.497Z,2.46
2023-01-26T02:20:07.368Z,2.45
2023-01-26T02:23:07.837Z,2.53
2023-01-26T02:25:34.801Z,2.46
2023-01-26T02:28:02.050Z,2.47
2023-01-26T02:30:29.993Z,2.45
2023-01-26T02:32:57.143Z,2.48
2023-01-26T02:35:24.248Z,2.50
2023-01-26T02:37:51.275Z,2.49
2023-01-26T02:41:01.490Z,2.45
2023-01-26T02:43:28.882Z,2.40
2023-01-26T02:45:55.974Z,2.47
2023-01-26T02:48:41.937Z,2.42
2023-01-26T02:51:09.054Z,2.37
2023-01-26T02:53:36.361Z,2.42
2023-01-26T02:56:03.437Z,2.53
2023-01-26T02:58:30.495Z,2.47
2023-01-26T03:00:57.574Z,2.52
2023-01-26T03:03:45.120Z,2.51
2023-01-26T03:06:13.199Z,2.57
2023-01-26T03:08:41.201Z,2.58
2023-01-26T03:11:09.375Z,2.54
2023-01-26T03:13:36.772Z,2.50
2023-01-26T03:16:08.412Z,2.48
2023-01-26T03:18:55.140Z,2.58
2023-01-26T03:21:41.344Z,2.53
2023-01-26T03:24:34.074Z,2.55
2023-01-26T03:27:19.915Z,2.47
2023-01-26T03:29:46.987Z,2.56
2023-01-26T03:32:15.247Z,2.56
2023-01-26T03:34:42.294Z,2.52
2023-01-26T03:37:09.830Z,2.53
2023-01-26T03:39:55.738Z,2.49
2023-01-26T03:42:41.594Z,2.50
2023-01-26T03:45:27.899Z,2.53
2023-01-26T03:48:30.515Z,2.51
2023-01-26T03:51:16.461Z,2.52
2023-01-26T03:54:02.818Z,2.53
2023-01-26T03:56:33.126Z,2.50
2023-01-26T03:59:09.333Z,2.42
2023-01-26T04:02:02.734Z,2.46
2023-01-26T04:04:48.428Z,2.52
2023-01-26T04:07:34.352Z,2.53
2023-01-26T04:10:01.387Z,2.47
2023-01-26T04:12:28.460Z,2.49
2023-01-26T04:15:13.834Z,2.61
2023-01-26T04:17:59.383Z,2.40
2023-01-26T04:20:44.878Z,2.42
2023-01-26T04:23:20.034Z,2.49
2023-01-26T04:25:48.942Z,2.55
2023-01-26T04:28:16.147Z,2.42
2023-01-26T04:30:44.406Z,2.57
2023-01-26T04:33:11.539Z,2.53
2023-01-26T04:35:38.702Z,2.62
2023-01-26T04:38:05.706Z,2.64
2023-01-26T04:40:32.675Z,2.70
2023-01-26T04:42:59.688Z,2.69
2023-01-26T04:45:26.780Z,2.62
2023-01-26T04:47:53.867Z,2.63
2023-01-26T04:50:20.907Z,2.70
2023-01-26T04:52:48.061Z,2.55
2023-01-26T04:55:15.099Z,2.64
2023-01-26T04:57:42.248Z,2.70
2023-01-26T05:00:12.340Z,2.68
2023-01-26T05:02:40.594Z,2.61
2023-01-26T05:05:08.339Z,2.63
2023-01-26T05:07:35.377Z,2.62
2023-01-26T05:10:02.496Z,2.58
2023-01-26T05:12:35.371Z,2.64
2023-01-26T05:15:02.550Z,2.55
2023-01-26T05:17:29.659Z,2.47
2023-01-26T05:19:56.658Z,2.61
2023-01-26T05:22:23.650Z,2.68
2023-01-26T05:24:50.667Z,2.68
2023-01-26T05:27:23.840Z,2.64
2023-01-26T05:29:51.993Z,2.74
2023-01-26T05:32:19.279Z,2.72
2023-01-26T05:34:46.596Z,2.71
2023-01-26T05:37:14.939Z,2.70
2023-01-26T05:39:42.763Z,2.64
2023-01-26T05:42:12.421Z,2.58
2023-01-26T05:44:39.941Z,2.62
2023-01-26T05:47:07.095Z,2.68
2023-01-26T05:49:34.143Z,2.66
2023-01-26T05:52:01.351Z,2.74
2023-01-26T05:54:28.569Z,2.61
2023-01-26T05:56:57.596Z,2.62
2023-01-26T05:59:24.767Z,2.61
2023-01-26T06:01:51.795Z,2.55
2023-01-26T06:04:19.072Z,2.46
2023-01-26T06:06:46.239Z,2.73
2023-01-26T06:09:13.369Z,2.64
2023-01-26T06:11:40.392Z,2.71
2023-01-26T06:14:07.465Z,2.71
2023-01-26T06:16:34.560Z,2.65
2023-01-26T06:19:01.687Z,2.73
2023-01-26T06:21:28.752Z,2.67
2023-01-26T06:23:55.836Z,2.61
2023-01-26T06:26:24.589Z,2.65
2023-01-26T06:28:53.048Z,2.62
2023-01-26T06:31:21.406Z,2.63
2023-01-26T06:33:48.496Z,2.66
2023-01-26T06:36:16.186Z,2.62
2023-01-26T06:38:54.032Z,2.84
2023-01-26T06:41:22.659Z,2.88
2023-01-26T06:43:49.848Z,2.81
2023-01-26T06:46:17.891Z,2.74
2023-01-26T06:48:45.551Z,2.82
2023-01-26T06:51:18.470Z,2.91
2023-01-26T06:53:56.805Z,2.91
2023-01-26T06:56:25.055Z,2.84
2023-01-26T06:58:52.130Z,2.79
2023-01-26T07:01:26.700Z,2.79
2023-01-26T07:03:55.206Z,2.81
2023-01-26T07:06:22.268Z,2.84
2023-01-26T07:08:49.420Z,2.81
2023-01-26T07:11:17.384Z,2.75
2023-01-26T07:13:44.496Z,2.87
2023-01-26T07:16:15.494Z,2.80
2023-01-26T07:18:42.984Z,2.75
2023-01-26T07:21:18.501Z,2.79
2023-01-26T07:23:46.781Z,2.79
2023-01-26T07:26:14.547Z,2.75
2023-01-26T07:28:41.623Z,2.72
2023-01-26T07:31:11.284Z,2.74
2023-01-26T07:33:38.492Z,2.78
2023-01-26T07:36:06.491Z,2.84
2023-01-26T07:38:35.320Z,2.75
2023-01-26T07:41:11.881Z,2.73
2023-01-26T07:43:39.981Z,2.77
2023-01-26T07:46:07.229Z,2.73
2023-01-26T07:48:34.468Z,2.70
2023-01-26T07:51:03.891Z,2.70
2023-01-26T07:53:34.130Z,2.75
2023-01-26T07:56:13.643Z,2.83
2023-01-26T07:58:41.192Z,2.77
2023-01-26T08:01:13.483Z,2.81
2023-01-26T08:03:41.234Z,2.79
2023-01-26T08:06:12.036Z,2.84
2023-01-26T08:08:41.552Z,2.88
2023-01-26T08:11:10.432Z,2.79
2023-01-26T08:13:38.143Z,2.81
2023-01-26T08:16:12.658Z,2.92
2023-01-26T08:18:46.004Z,2.96
2023-01-26T08:21:15.024Z,2.95
2023-01-26T08:23:42.372Z,3.02
2023-01-26T08:26:13.659Z,3.08
2023-01-26T08:28:41.573Z,3.01
2023-01-26T08:31:17.952Z,3.06
2023-01-26T08:33:47.119Z,2.97
2023-01-26T08:36:16.042Z,3.06
2023-01-26T08:38:44.009Z,3.05
2023-01-26T08:41:12.282Z,3.15
2023-01-26T08:43:39.883Z,3.21
2023-01-26T08:46:07.333Z,3.24
2023-01-26T08:48:34.491Z,3.20
2023-01-26T08:51:05.219Z,3.18
2023-01-26T08:53:35.864Z,3.19
2023-01-26T08:56:04.739Z,3.24
2023-01-26T08:58:33.811Z,3.26
2023-01-26T09:01:09.064Z,3.17
2023-01-26T09:03:36.321Z,3.19
2023-01-26T09:06:04.873Z,3.23
2023-01-26T09:08:32.480Z,3.19
2023-01-26T09:10:59.985Z,3.16
2023-01-26T09:13:27.058Z,3.12
2023-01-26T09:15:54.254Z,3.11
2023-01-26T09:18:21.283Z,3.07
2023-01-26T09:20:49.848Z,3.08
2023-01-26T09:23:18.254Z,3.07
2023-01-26T09:25:45.344Z,3.12
2023-01-26T09:28:12.439Z,3.12
2023-01-26T09:30:39.557Z,3.12
2023-01-26T09:33:07.296Z,3.05
2023-01-26T09:35:34.389Z,3.12
2023-01-26T09:38:01.438Z,3.03
2023-01-26T09:41:06.417Z,3.01
2023-01-26T09:43:53.355Z,3.05
2023-01-26T09:47:04.518Z,3.04
2023-01-26T09:49:51.723Z,3.08
2023-01-26T09:52:40.835Z,3.08
2023-01-26T09:55:16.023Z,3.08
2023-01-26T09:58:24.087Z,3.18
2023-01-26T10:00:57.562Z,3.13
2023-01-26T10:03:57.502Z,3.16
2023-01-26T10:06:31.656Z,3.18
2023-01-26T10:09:06.819Z,3.21
2023-01-26T10:11:42.602Z,3.24
2023-01-26T10:14:38.598Z,3.51
2023-01-26T10:17:12.723Z,3.43
2023-01-26T10:19:45.923Z,3.34
2023-01-26T10:22:42.427Z,3.37
2023-01-26T10:25:19.591Z,3.24
2023-01-26T10:27:47.141Z,3.36
2023-01-26T10:30:17.241Z,3.25
2023-01-26T10:32:47.275Z,3.26
2023-01-26T10:35:25.811Z,3.30
2023-01-26T10:37:53.297Z,3.36
2023-01-26T10:40:21.706Z,3.27
2023-01-26T10:42:58.514Z,3.29
2023-01-26T10:45:34.010Z,3.28
2023-01-26T10:48:30.237Z,3.25
2023-01-26T10:51:16.718Z,3.25
2023-01-26T10:53:43.722Z,3.23
2023-01-26T10:56:17.219Z,3.27
2023-01-26T10:58:47.127Z,3.32
2023-01-26T11:01:18.790Z,3.31
2023-01-26T11:04:20.158Z,3.34
2023-01-26T11:06:47.372Z,3.37
2023-01-26T11:09:14.224Z,3.44
2023-01-26T11:11:41.971Z,3.46
2023-01-26T11:14:19.605Z,3.53
2023-01-26T11:16:56.610Z,3.51
2023-01-26T11:19:44.886Z,3.54
2023-01-26T11:23:00.020Z,3.57
2023-01-26T11:26:20.508Z,3.76
2023-01-26T11:29:41.425Z,3.68
2023-01-26T11:32:22.015Z,3.68
2023-01-26T11:35:32.477Z,3.67
2023-01-26T11:38:26.995Z,3.74
2023-01-26T11:41:28.078Z,3.71
2023-01-26T11:44:07.993Z,3.68
2023-01-26T11:46:59.448Z,3.68
2023-01-26T11:49:47.529Z,3.71
2023-01-26T11:52:46.231Z,3.62
2023-01-26T11:55:47.099Z,3.64
2023-01-26T11:58:32.722Z,3.57
2023-01-26T12:01:13.430Z,3.63
2023-01-26T12:03:53.219Z,3.56
2023-01-26T12:06:40.393Z,3.58
2023-01-26T12:09:33.402Z,3.44
2023-01-26T12:12:17.734Z,3.41
2023-01-26T12:15:00.498Z,3.42
2023-01-26T12:17:45.933Z,3.48
2023-01-26T12:20:45.519Z,3.41
2023-01-26T12:23:21.363Z,3.39
2023-01-26T12:26:05.728Z,3.43
2023-01-26T12:28:51.266Z,3.38
2023-01-26T12:31:42.967Z,3.36
2023-01-26T12:34:13.517Z,3.39
2023-01-26T12:37:10.350Z,3.47
2023-01-26T12:39:47.840Z,3.50
2023-01-26T12:42:44.047Z,3.41
2023-01-26T12:45:27.660Z,3.42
2023-01-26T12:48:22.012Z,3.36
2023-01-26T12:51:00.992Z,3.38
2023-01-26T12:53:39.211Z,3.30
2023-01-26T12:56:40.896Z,3.35
2023-01-26T12:59:46.899Z,3.42
2023-01-26T13:02:32.484Z,3.35
2023-01-26T13:05:01.931Z,3.43
2023-01-26T13:07:39.503Z,3.38
2023-01-26T13:10:19.336Z,3.39
2023-01-26T13:12:55.033Z,3.31
2023-01-26T13:15:31.760Z,3.25
2023-01-26T13:18:04.320Z,3.22
2023-01-26T13:20:40.238Z,3.24
2023-01-26T13:23:45.975Z,3.29
2023-01-26T13:26:20.195Z,3.25
2023-01-26T13:28:49.125Z,3.21
2023-01-26T13:31:34.273Z,3.21
2023-01-26T13:34:08.369Z,3.14
2023-01-26T13:36:39.127Z,3.16
2023-01-26T13:39:18.329Z,3.19
2023-01-26T13:41:47.874Z,3.05
2023-01-26T13:44:26.993Z,3.12
2023-01-26T13:47:08.812Z,3.16
2023-01-26T13:49:43.830Z,3.18
2023-01-26T13:52:21.521Z,3.21
2023-01-26T13:54:50.839Z,3.15
2023-01-26T13:57:24.858Z,3.16
2023-01-26T13:59:59.304Z,3.15
2023-01-26T14:02:35.546Z,3.15
2023-01-26T14:05:03.668Z,3.27
2023-01-26T14:07:43.578Z,3.17
2023-01-26T14:10:20.210Z,3.10
2023-01-26T14:12:56.729Z,3.10
2023-01-26T14:15:35.095Z,3.04
2023-01-26T14:18:09.056Z,2.98
2023-01-26T14:20:39.799Z,2.99
2023-01-26T14:23:18.884Z,2.94
2023-01-26T14:25:58.318Z,2.92
2023-01-26T14:28:34.806Z,3.01
2023-01-26T14:31:24.445Z,2.98
2023-01-26T14:33:57.733Z,2.94
2023-01-26T14:36:37.126Z,2.97
2023-01-26T14:39:20.823Z,3.00
2023-01-26T14:41:49.763Z,2.95
2023-01-26T14:44:16.903Z,2.99
2023-01-26T14:47:03.722Z,2.94
2023-01-26T14:50:00.016Z,2.95
2023-01-26T14:52:34.892Z,2.95
2023-01-26T14:55:22.645Z,2.85
2023-01-26T14:57:51.807Z,2.91
2023-01-26T15:00:28.933Z,2.79
2023-01-26T15:02:59.267Z,2.76
2023-01-26T15:05:38.838Z,2.74
2023-01-26T15:08:24.207Z,2.77
2023-01-26T15:11:25.390Z,2.69
2023-01-26T15:13:55.517Z,2.72
2023-01-26T15:16:26.566Z,2.66
2023-01-26T15:19:06.891Z,2.70
2023-01-26T15:21:40.169Z,2.74
2023-01-26T15:24:14.014Z,2.79
2023-01-26T15:26:42.512Z,2.76
2023-01-26T15:29:27.858Z,2.62
2023-01-26T15:31:57.164Z,2.65
2023-01-26T15:35:02.724Z,2.74
2023-01-26T15:37:33.832Z,2.80
2023-01-26T15:40:00.966Z,2.77
2023-01-26T15:42:32.977Z,2.83
2023-01-26T15:45:00.093Z,2.77
2023-01-26T15:47:27.141Z,2.68
2023-01-26T15:49:54.223Z,2.70
2023-01-26T15:52:26.269Z,2.74
2023-01-26T15:54:54.161Z,2.74
2023-01-26T15:57:21.173Z,2.77
2023-01-26T15:59:48.216Z,2.71
2023-01-26T16:02:19.015Z,2.72
2023-01-26T16:04:46.753Z,2.74
2023-01-26T16:07:17.881Z,2.70
2023-01-26T16:09:45.220Z,2.61
2023-01-26T16:12:33.781Z,2.63
2023-01-26T16:15:01.135Z,2.72
2023-01-26T16:17:28.423Z,2.70
2023-01-26T16:19:55.607Z,2.71
2023-01-26T16:22:22.706Z,2.72
2023-01-26T16:24:49.686Z,2.78
2023-01-26T16:27:16.747Z,2.78
2023-01-26T16:29:43.708Z,2.76
2023-01-26T16:32:30.569Z,2.66
2023-01-26T16:34:57.713Z,2.65
2023-01-26T16:37:24.780Z,2.74
2023-01-26T16:39:51.828Z,2.70
2023-01-26T16:42:21.280Z,2.63
2023-01-26T16:44:48.584Z,2.71
2023-01-26T16:47:15.572Z,2.70
2023-01-26T16:49:42.628Z,2.63
2023-01-26T16:52:10.278Z,2.69
2023-01-26T16:54:37.503Z,2.69
2023-01-26T16:57:04.964Z,2.68
2023-01-26T16:59:32.032Z,2.72
2023-01-26T17:01:59.360Z,2.73
2023-01-26T17:04:26.481Z,2.71
2023-01-26T17:06:53.514Z,2.69
2023-01-26T17:09:21.356Z,2.68
2023-01-26T17:11:48.540Z,2.59
2023-01-26T17:14:15.633Z,2.57
2023-01-26T17:16:42.705Z,2.70
2023-01-26T17:19:09.913Z,2.64
2023-01-26T17:21:37.186Z,2.53
2023-01-26T17:24:06.846Z,2.59
2023-01-26T17:26:33.940Z,2.51
2023-01-26T17:29:01.014Z,2.47
2023-01-26T17:31:28.677Z,2.54
2023-01-26T17:33:55.944Z,2.53
2023-01-26T17:36:23.143Z,2.49
2023-01-26T17:38:50.455Z,2.56
2023-01-26T17:41:18.191Z,2.58
2023-01-26T17:43:45.685Z,2.56
2023-01-26T17:46:21.215Z,2.50
2023-01-26T17:48:49.704Z,2.58
2023-01-26T17:51:20.412Z,2.54
2023-01-26T17:53:51.601Z,2.44
2023-01-26T17:56:21.573Z,2.48
2023-01-26T17:58:52.151Z,2.29
2023-01-26T18:01:23.649Z,2.48
2023-01-26T18:03:51.285Z,2.55
2023-01-26T18:06:18.414Z,2.55
2023-01-26T18:08:45.862Z,2.59
2023-01-26T18:11:15.680Z,2.47
2023-01-26T18:13:43.200Z,2.47
2023-01-26T18:16:14.831Z,2.39
2023-01-26T18:18:42.814Z,2.45
2023-01-26T18:21:30.305Z,2.39
2023-01-26T18:24:02.160Z,2.29
2023-01-26T18:26:33.652Z,2.33
2023-01-26T18:29:00.726Z,2.41
2023-01-26T18:31:34.708Z,2.34
2023-01-26T18:34:03.634Z,2.35
2023-01-26T18:36:31.944Z,2.29
2023-01-26T18:39:02.288Z,2.28
2023-01-26T18:41:33.151Z,2.22
2023-01-26T18:44:03.100Z,2.32
2023-01-26T18:46:31.421Z,2.21
2023-01-26T18:49:03.151Z,2.34
2023-01-26T18:51:35.669Z,2.27
2023-01-26T18:54:04.949Z,2.28
2023-01-26T18:56:32.737Z,2.29
2023-01-26T18:58:59.772Z,2.35
2023-01-26T19:01:26.895Z,2.25
2023-01-26T19:03:55.589Z,2.26
2023-01-26T19:06:25.495Z,2.31
2023-01-26T19:08:58.842Z,2.25
2023-01-26T19:11:31.992Z,2.24
2023-01-26T19:14:00.216Z,2.26
2023-01-26T19:16:29.076Z,2.32
2023-01-26T19:18:56.449Z,2.35
2023-01-26T19:21:25.772Z,2.31
2023-01-26T19:23:55.375Z,2.29
2023-01-26T19:26:26.267Z,2.29
2023-01-26T19:28:54.691Z,2.29
2023-01-26T19:31:22.659Z,2.30
2023-01-26T19:34:02.496Z,2.34
2023-01-26T19:36:33.299Z,2.29
2023-01-26T19:39:01.759Z,2.35
2023-01-26T19:41:29.023Z,2.17
2023-01-26T19:43:56.062Z,2.31
2023-01-26T19:46:23.463Z,2.34
2023-01-26T19:48:50.883Z,2.35
2023-01-26T19:51:26.643Z,2.33
2023-01-26T19:54:00.037Z,2.30
2023-01-26T19:56:31.354Z,2.32
2023-01-26T19:59:01.763Z,2.38
2023-01-26T20:01:30.405Z,2.26
2023-01-26T20:04:00.702Z,2.29
2023-01-26T20:06:31.230Z,2.35
2023-01-26T20:08:59.476Z,2.32
2023-01-26T20:11:29.071Z,2.34
2023-01-26T20:13:58.494Z,2.32
2023-01-26T20:16:29.207Z,2.28
2023-01-26T20:18:59.177Z,2.31
2023-01-26T20:21:28.215Z,2.49
2023-01-26T20:23:56.268Z,2.42
2023-01-26T20:26:25.979Z,2.41
2023-01-26T20:28:56.893Z,2.44
2023-01-26T20:31:27.167Z,2.44
2023-01-26T20:33:55.074Z,2.47
2023-01-26T20:36:25.994Z,2.48
2023-01-26T20:38:53.979Z,2.47
2023-01-26T20:41:28.352Z,2.33
2023-01-26T20:44:01.128Z,2.42
2023-01-26T20:46:41.117Z,2.43
2023-01-26T20:49:12.698Z,2.52
2023-01-26T20:51:42.659Z,2.55
2023-01-26T20:54:14.026Z,2.41
2023-01-26T20:56:41.448Z,2.37
2023-01-26T20:59:08.998Z,2.44
2023-01-26T21:01:36.425Z,2.43
2023-01-26T21:04:05.508Z,2.52
2023-01-26T21:06:33.044Z,2.41
2023-01-26T21:09:04.037Z,2.44
2023-01-26T21:11:32.053Z,2.46
2023-01-26T21:14:01.811Z,2.35
2023-01-26T21:16:31.380Z,2.39
2023-01-26T21:18:58.765Z,2.42
2023-01-26T21:21:26.045Z,2.37
2023-01-26T21:23:53.209Z,2.37
2023-01-26T21:26:23.282Z,2.40
2023-01-26T21:28:59.777Z,2.37
2023-01-26T21:31:30.321Z,2.44
2023-01-26T21:33:58.668Z,2.38
2023-01-26T21:36:30.888Z,2.30
2023-01-26T21:38:59.973Z,2.31
2023-01-26T21:41:47.711Z,2.42
2023-01-26T21:44:18.451Z,2.35
2023-01-26T21:46:47.109Z,2.34
2023-01-26T21:49:15.128Z,2.31
2023-01-26T21:52:01.083Z,2.31
2023-01-26T21:54:30.003Z,2.35
2023-01-26T21:56:57.891Z,2.32
2023-01-26T21:59:25.208Z,2.27
2023-01-26T22:01:55.525Z,2.20
2023-01-26T22:04:28.566Z,2.29
2023-01-26T22:06:57.072Z,2.29
2023-01-26T22:09:24.570Z,2.27
2023-01-26T22:11:52.829Z,2.25
2023-01-26T22:14:22.686Z,2.20
2023-01-26T22:16:50.157Z,2.22
2023-01-26T22:19:17.308Z,2.23
2023-01-26T22:21:44.838Z,2.34
2023-01-26T22:24:14.440Z,2.37
2023-01-26T22:26:42.248Z,2.37
2023-01-26T22:29:13.196Z,2.30
2023-01-26T22:31:40.438Z,2.35
2023-01-26T22:34:07.700Z,2.31
2023-01-26T22:36:34.803Z,2.24
2023-01-26T22:39:01.891Z,2.28
2023-01-26T22:41:30.431Z,2.30
2023-01-26T22:44:00.148Z,2.40
2023-01-26T22:46:29.717Z,2.41
2023-01-26T22:48:58.810Z,2.29
2023-01-26T22:51:29.709Z,2.37
2023-01-26T22:53:58.597Z,2.39
2023-01-26T22:56:26.850Z,2.28
2023-01-26T22:58:59.385Z,2.33
2023-01-26T23:01:30.088Z,2.19
2023-01-26T23:03:58.608Z,2.35
2023-01-26T23:06:25.792Z,2.34
2023-01-26T23:08:53.229Z,2.31
2023-01-26T23:11:27.878Z,2.30
2023-01-26T23:13:57.688Z,2.29
2023-01-26T23:16:25.772Z,2.28
2023-01-26T23:18:56.170Z,2.19
2023-01-26T23:21:25.159Z,2.26
2023-01-26T23:23:52.614Z,2.30
2023-01-26T23:26:20.538Z,2.37
2023-01-26T23:28:48.200Z,2.42
2023-01-26T23:31:18.011Z,2.26
2023-01-26T23:33:46.121Z,2.43
2023-01-26T23:36:14.981Z,2.43
2023-01-26T23:38:44.315Z,2.39
2023-01-26T23:41:12.069Z,2.43
2023-01-26T23:43:39.759Z,2.42
2023-01-26T23:46:09.409Z,2.34
2023-01-26T23:48:36.946Z,2.32
2023-01-26T23:51:08.584Z,2.26
2023-01-26T23:53:36.297Z,2.27
2023-01-26T23:56:29.671Z,2.25
2023-01-26T23:58:56.658Z,2.33
